Eland, Wisconsin
Current Conditions -  °F | °C
As of 11:35 AM on Monday 22 Dec 2014 (Local Time) from KAIG Reporting Station
Haze Haze  
Wind Chill: 23°   Ceiling: 300
Heat Index: 32°   Visibility: 0.75mi
Dew Point: 32°   Wind: 10mph
Humidity: 100%   Direction: 140°SE
Pressure: 29.79"   Gusts: NA
Location:  44.87°N, 89.22°W
Report Text: KAIG 221735Z AUTO 14009KT 3/4SM BR OVC003 00/00 A2979 RMK AO2 T10021002
Loading
Personal Weather Stations






























Interactive Weather Map New forecast layout! Learn more

10-Day Weather Forecast

Advertisements
Track Severe Weather on mobile